Time;durP1;ratioP1;P1;durP2;ratioP2;P2;SDS_P1;SDS_P2;PMS_P1;PMS_P2;Temp;Humidity;BMP_temperature;BMP_pressure;BME280_temperature;BME280_humidity;BME280_pressure;Samples;Min_cycle;Max_cycle;Signal;HPM_P1;HPM_P2
2022/02/10 00:03:14;;;;;;;30.60;12.63;;;;;;;;;;4998967;28;20219;-78
2022/02/10 00:15:55;;;;;;;36.97;14.33;;;;;;;;;;5020373;28;20633;-78
2022/02/10 00:18:39;;;;;;;46.83;14.27;;;;;;;;;;5019979;28;20199;-77
2022/02/10 00:21:10;;;;;;;48.17;14.10;;;;;;;;;;5019244;28;20262;-76
2022/02/10 00:23:53;;;;;;;57.93;14.17;;;;;;;;;;5020244;28;20208;-77
2022/02/10 00:35:15;;;;;;;105.43;16.17;;;;;;;;;;5025299;28;20314;-77
2022/02/10 00:37:57;;;;;;;70.27;14.63;;;;;;;;;;5026167;28;20206;-78
2022/02/10 00:40:25;;;;;;;98.93;15.03;;;;;;;;;;5026441;28;20228;-78
2022/02/10 00:42:53;;;;;;;70.80;14.13;;;;;;;;;;5025259;28;20209;-79
2022/02/10 00:45:20;;;;;;;77.83;13.53;;;;;;;;;;5027841;28;20555;-79
2022/02/10 00:47:54;;;;;;;60.77;13.50;;;;;;;;;;5028204;28;20222;-78
2022/02/10 00:50:22;;;;;;;56.47;13.90;;;;;;;;;;5029344;28;20311;-78
2022/02/10 00:52:56;;;;;;;47.67;13.37;;;;;;;;;;5027169;28;20295;-78
2022/02/10 00:55:27;;;;;;;54.70;10.90;;;;;;;;;;5026357;28;20192;-78
2022/02/10 00:57:54;;;;;;;49.07;10.03;;;;;;;;;;5027603;28;20575;-79
2022/02/10 01:11:41;;;;;;;64.20;12.27;;;;;;;;;;5028066;28;20233;-78
2022/02/10 01:14:30;;;;;;;67.20;12.13;;;;;;;;;;5026920;28;20243;-78
2022/02/10 01:30:41;;;;;;;43.57;12.53;;;;;;;;;;5026096;28;20238;-78
2022/02/10 01:33:10;;;;;;;47.03;11.03;;;;;;;;;;5027497;28;20281;-78
2022/02/10 01:35:38;;;;;;;69.53;11.97;;;;;;;;;;5029631;28;20204;-78
2022/02/10 01:38:05;;;;;;;42.63;12.27;;;;;;;;;;5022406;28;20203;-78
2022/02/10 01:40:57;;;;;;;57.10;10.47;;;;;;;;;;5024228;28;20220;-78
2022/02/10 01:57:44;;;;;;;34.47;10.83;;;;;;;;;;5021935;28;20216;-78
2022/02/10 02:05:36;;;;;;;31.80;8.73;;;;;;;;;;5024069;28;20692;-77
2022/02/10 02:08:03;;;;;;;37.00;10.20;;;;;;;;;;5025234;28;20207;-76
2022/02/10 02:10:30;;;;;;;48.33;10.37;;;;;;;;;;5027076;28;20661;-76
2022/02/10 02:12:59;;;;;;;29.00;9.73;;;;;;;;;;5026005;28;20620;-76
2022/02/10 02:15:26;;;;;;;22.90;10.47;;;;;;;;;;5025131;28;20754;-76
2022/02/10 02:17:53;;;;;;;38.70;8.27;;;;;;;;;;5026879;28;20196;-77
2022/02/10 02:20:20;;;;;;;59.13;12.03;;;;;;;;;;5025152;28;20224;-76
2022/02/10 02:22:49;;;;;;;53.13;8.77;;;;;;;;;;5025711;28;20220;-76
2022/02/10 02:25:16;;;;;;;84.03;8.97;;;;;;;;;;5024658;28;20287;-76
2022/02/10 02:27:44;;;;;;;42.47;8.70;;;;;;;;;;5025906;28;20200;-77
2022/02/10 02:30:20;;;;;;;81.90;9.00;;;;;;;;;;5023608;28;20279;-76
2022/02/10 02:33:06;;;;;;;40.23;6.77;;;;;;;;;;5024035;28;20203;-77
2022/02/10 02:35:43;;;;;;;27.23;6.97;;;;;;;;;;5025906;28;20720;-79
2022/02/10 02:38:36;;;;;;;31.30;7.13;;;;;;;;;;5028623;28;20666;-77
2022/02/10 03:05:58;;;;;;;40.80;10.33;;;;;;;;;;5034578;28;20253;-78
2022/02/10 03:08:26;;;;;;;64.43;13.73;;;;;;;;;;5030931;28;20846;-78
2022/02/10 03:11:06;;;;;;;78.73;10.10;;;;;;;;;;5034163;28;20757;-78
2022/02/10 03:13:35;;;;;;;97.67;22.30;;;;;;;;;;5031628;28;20945;-78
2022/02/10 03:18:54;;;;;;;40.43;6.87;;;;;;;;;;5035571;28;20207;-78
2022/02/10 03:21:42;;;;;;;67.57;9.40;;;;;;;;;;5031075;28;20296;-78
2022/02/10 04:00:27;;;;;;;31.90;7.23;;;;;;;;;;5027905;28;20206;-78
2022/02/10 04:03:16;;;;;;;34.27;7.60;;;;;;;;;;5026836;28;20200;-78
2022/02/10 04:08:52;;;;;;;20.50;6.53;;;;;;;;;;5028543;28;20206;-78
2022/02/10 04:11:40;;;;;;;16.33;5.50;;;;;;;;;;5027372;28;20226;-78
2022/02/10 04:14:15;;;;;;;14.67;5.57;;;;;;;;;;5026903;28;20655;-78
2022/02/10 04:16:51;;;;;;;61.03;7.10;;;;;;;;;;5030596;28;20219;-78
2022/02/10 04:19:36;;;;;;;49.00;5.97;;;;;;;;;;5028452;28;20198;-78
2022/02/10 04:22:12;;;;;;;48.17;6.73;;;;;;;;;;5025992;28;20251;-79
2022/02/10 04:25:02;;;;;;;55.40;7.23;;;;;;;;;;5024739;28;20223;-79
2022/02/10 04:27:53;;;;;;;35.33;6.37;;;;;;;;;;5025844;28;20211;-77
2022/02/10 04:30:35;;;;;;;27.57;6.07;;;;;;;;;;5028392;28;20220;-76
2022/02/10 04:39:27;;;;;;;33.87;6.10;;;;;;;;;;4981051;28;20199;-78
2022/02/10 04:56:03;;;;;;;48.33;7.00;;;;;;;;;;5008425;28;20199;-77
2022/02/10 04:58:47;;;;;;;27.37;6.40;;;;;;;;;;5012633;28;20209;-78
2022/02/10 05:01:28;;;;;;;33.60;6.33;;;;;;;;;;5015869;28;20234;-78
2022/02/10 05:04:22;;;;;;;20.93;6.27;;;;;;;;;;5025196;28;20646;-78
2022/02/10 05:13:13;;;;;;;42.47;6.93;;;;;;;;;;5024893;28;20259;-78
2022/02/10 05:23:56;;;;;;;64.47;7.23;;;;;;;;;;5016793;28;20247;-77
2022/02/10 05:32:14;;;;;;;49.00;6.20;;;;;;;;;;5028008;28;20233;-78
2022/02/10 05:34:45;;;;;;;43.80;6.33;;;;;;;;;;5029793;28;20214;-78
2022/02/10 05:37:15;;;;;;;35.17;5.53;;;;;;;;;;5027415;28;20700;-79
2022/02/10 05:39:46;;;;;;;28.37;6.17;;;;;;;;;;5029134;28;20200;-79
2022/02/10 05:45:11;;;;;;;36.57;6.20;;;;;;;;;;5030558;28;20294;-78
2022/02/10 05:47:58;;;;;;;31.17;5.30;;;;;;;;;;5030010;28;20216;-79
2022/02/10 05:56:11;;;;;;;43.60;8.17;;;;;;;;;;5029830;28;20207;-79
2022/02/10 05:59:05;;;;;;;74.10;7.60;;;;;;;;;;5028840;28;20202;-78
2022/02/10 06:02:12;;;;;;;31.70;6.37;;;;;;;;;;5028155;28;20482;-78
2022/02/10 06:51:47;;;;;;;32.93;7.00;;;;;;;;;;5012811;28;20322;-76
2022/02/10 06:54:23;;;;;;;22.37;6.03;;;;;;;;;;5024754;28;20299;-76
2022/02/10 07:05:43;;;;;;;47.47;6.50;;;;;;;;;;5019660;28;20674;-76
2022/02/10 07:08:27;;;;;;;28.33;6.40;;;;;;;;;;5026450;28;20658;-76
2022/02/10 07:14:16;;;;;;;23.37;5.90;;;;;;;;;;5019212;28;20882;-76
2022/02/10 07:17:13;;;;;;;12.07;5.57;;;;;;;;;;5027977;28;20261;-77
2022/02/10 07:47:43;;;;;;;16.83;6.73;;;;;;;;;;5025057;28;20203;-76
2022/02/10 07:59:02;;;;;;;15.50;6.80;;;;;;;;;;5001554;28;20203;-76
2022/02/10 08:04:45;;;;;;;15.37;7.67;;;;;;;;;;5024522;28;20200;-77
2022/02/10 08:57:17;;;;;;;16.47;8.53;;;;;;;;;;5022410;28;20191;-76
2022/02/10 09:05:32;;;;;;;15.13;8.20;;;;;;;;;;5005274;28;20200;-77
2022/02/10 09:55:27;;;;;;;22.53;11.33;;;;;;;;;;5020745;28;20207;-80
2022/02/10 09:58:11;;;;;;;28.77;13.00;;;;;;;;;;5026662;28;20206;-80
2022/02/10 10:00:50;;;;;;;30.60;14.27;;;;;;;;;;5030612;28;20235;-81
2022/02/10 10:03:22;;;;;;;26.83;14.40;;;;;;;;;;5026782;28;20226;-81
2022/02/10 10:06:00;;;;;;;33.63;15.17;;;;;;;;;;5030097;28;20196;-81
2022/02/10 10:08:50;;;;;;;35.57;15.93;;;;;;;;;;5033069;28;20207;-81
2022/02/10 10:14:24;;;;;;;37.80;16.23;;;;;;;;;;5029516;28;20500;-81
2022/02/10 10:17:20;;;;;;;37.23;16.70;;;;;;;;;;5031924;28;20310;-80
2022/02/10 10:22:56;;;;;;;39.80;15.83;;;;;;;;;;5027256;28;20203;-79
2022/02/10 10:25:53;;;;;;;37.40;16.67;;;;;;;;;;5030172;28;20730;-79
2022/02/10 10:51:12;;;;;;;27.10;15.13;;;;;;;;;;5021982;28;20263;-81
2022/02/10 10:53:48;;;;;;;27.33;13.77;;;;;;;;;;5027765;28;20193;-80
2022/02/10 10:56:22;;;;;;;27.63;13.07;;;;;;;;;;5025796;28;20210;-82
2022/02/10 10:59:12;;;;;;;27.77;12.23;;;;;;;;;;5027619;28;20257;-81
2022/02/10 11:08:01;;;;;;;23.87;10.93;;;;;;;;;;5029845;28;20200;-81
2022/02/10 11:38:38;;;;;;;20.23;9.97;;;;;;;;;;5022163;28;20245;-81
2022/02/10 11:41:26;;;;;;;16.97;8.10;;;;;;;;;;5027827;28;20230;-81
2022/02/10 11:44:23;;;;;;;22.87;8.70;;;;;;;;;;5023796;28;20718;-80
2022/02/10 12:30:25;;;;;;;17.57;7.63;;;;;;;;;;5024214;28;20227;-81
2022/02/10 13:02:46;;;;;;;20.83;9.27;;;;;;;;;;4989319;28;20593;-80
2022/02/10 13:23:34;;;;;;;15.43;6.53;;;;;;;;;;5026426;28;20745;-79
2022/02/10 14:11:28;;;;;;;11.60;6.70;;;;;;;;;;5020596;28;20269;-78
2022/02/10 14:13:54;;;;;;;21.13;8.97;;;;;;;;;;5021828;28;20222;-78
2022/02/10 14:16:35;;;;;;;23.83;10.83;;;;;;;;;;5023413;28;20210;-77
2022/02/10 14:19:14;;;;;;;25.63;10.87;;;;;;;;;;5022374;28;20599;-78
2022/02/10 14:21:58;;;;;;;13.67;7.17;;;;;;;;;;5020243;28;20216;-78
2022/02/10 14:27:11;;;;;;;22.93;10.07;;;;;;;;;;5019260;28;21388;-78
2022/02/10 14:29:40;;;;;;;23.00;10.97;;;;;;;;;;5027162;28;20235;-79
2022/02/10 14:32:09;;;;;;;91.60;34.50;;;;;;;;;;5021857;28;20773;-78
2022/02/10 14:34:36;;;;;;;33.23;16.07;;;;;;;;;;5028634;28;20250;-78
2022/02/10 14:37:22;;;;;;;38.00;20.73;;;;;;;;;;5027691;28;20199;-77
2022/02/10 14:40:00;;;;;;;19.70;8.67;;;;;;;;;;5020968;28;20651;-78
2022/02/10 14:43:02;;;;;;;12.17;7.43;;;;;;;;;;5021394;28;20203;-78
2022/02/10 15:11:22;;;;;;;13.00;5.20;;;;;;;;;;5026498;28;20249;-78
2022/02/10 15:36:19;;;;;;;10.13;5.50;;;;;;;;;;4999266;28;20558;-78
2022/02/10 15:50:25;;;;;;;14.20;5.87;;;;;;;;;;4947589;28;20310;-78
2022/02/10 15:53:26;;;;;;;11.60;5.97;;;;;;;;;;5022484;28;20212;-78
2022/02/10 16:17:55;;;;;;;9.13;4.70;;;;;;;;;;5024869;28;20210;-78
2022/02/10 16:20:28;;;;;;;7.27;4.30;;;;;;;;;;5021747;28;20227;-77
2022/02/10 16:23:00;;;;;;;8.93;4.70;;;;;;;;;;5020864;28;20208;-77
2022/02/10 16:25:27;;;;;;;9.77;4.40;;;;;;;;;;5021083;28;20215;-78
2022/02/10 16:28:08;;;;;;;7.77;4.57;;;;;;;;;;5024160;28;20215;-78
2022/02/10 16:30:35;;;;;;;7.73;4.73;;;;;;;;;;5020845;28;20314;-78
2022/02/10 16:33:04;;;;;;;11.83;5.93;;;;;;;;;;5023901;28;20291;-78
2022/02/10 16:35:31;;;;;;;41.33;18.77;;;;;;;;;;5028491;28;20197;-80
2022/02/10 16:37:59;;;;;;;31.92;16.60;;;;;;;;;;5033438;28;20450;-79
2022/02/10 16:40:26;;;;;;;16.90;7.37;;;;;;;;;;5032684;28;20322;-80
2022/02/10 16:42:53;;;;;;;26.00;11.67;;;;;;;;;;5032333;28;20212;-81
2022/02/10 16:45:20;;;;;;;17.67;8.87;;;;;;;;;;5029034;28;20679;-81
2022/02/10 16:47:48;;;;;;;12.33;5.83;;;;;;;;;;5031221;28;20211;-79
2022/02/10 16:50:16;;;;;;;7.90;3.00;;;;;;;;;;5029616;28;20507;-80
2022/02/10 16:52:47;;;;;;;6.30;3.17;;;;;;;;;;5033158;28;20221;-78
2022/02/10 16:55:23;;;;;;;6.10;3.70;;;;;;;;;;5033695;28;20204;-78
2022/02/10 16:58:04;;;;;;;5.60;3.70;;;;;;;;;;5031207;28;20207;-79
2022/02/10 17:03:24;;;;;;;10.03;4.80;;;;;;;;;;5033245;28;20214;-80
2022/02/10 17:06:05;;;;;;;8.87;4.60;;;;;;;;;;5030281;28;20196;-80
2022/02/10 17:14:23;;;;;;;4.80;3.10;;;;;;;;;;5034374;28;20195;-80
2022/02/10 17:19:46;;;;;;;13.83;6.90;;;;;;;;;;5036209;28;20211;-80
2022/02/10 17:25:11;;;;;;;5.10;2.10;;;;;;;;;;5035425;28;20275;-79
2022/02/10 17:27:41;;;;;;;4.57;2.47;;;;;;;;;;5029673;28;20620;-79
2022/02/10 17:33:06;;;;;;;4.50;2.33;;;;;;;;;;5034379;28;20275;-80
2022/02/10 17:35:47;;;;;;;7.33;1.63;;;;;;;;;;5038214;28;20298;-79
2022/02/10 17:44:17;;;;;;;6.33;2.87;;;;;;;;;;4975202;28;20205;-81
2022/02/10 17:46:57;;;;;;;12.20;5.63;;;;;;;;;;4975165;28;20284;-81
2022/02/10 17:52:15;;;;;;;6.73;3.40;;;;;;;;;;5023332;28;20357;-79
2022/02/10 17:54:44;;;;;;;9.20;3.90;;;;;;;;;;5030545;28;20206;-80
2022/02/10 17:57:12;;;;;;;8.43;3.77;;;;;;;;;;5028051;28;20203;-82
2022/02/10 17:59:39;;;;;;;11.23;5.00;;;;;;;;;;5029372;28;20219;-80
2022/02/10 18:02:07;;;;;;;11.77;4.47;;;;;;;;;;5034586;28;20298;-79
2022/02/10 18:04:34;;;;;;;40.97;15.47;;;;;;;;;;5030718;28;20217;-79
2022/02/10 18:07:03;;;;;;;19.60;10.13;;;;;;;;;;5038612;28;20203;-80
2022/02/10 18:15:22;;;;;;;7.40;3.07;;;;;;;;;;5031817;28;20196;-79
2022/02/10 18:17:55;;;;;;;6.23;3.13;;;;;;;;;;5034324;28;20206;-79
2022/02/10 18:20:28;;;;;;;10.13;5.17;;;;;;;;;;5039586;28;20231;-79
2022/02/10 18:23:14;;;;;;;8.67;5.33;;;;;;;;;;5034455;28;20222;-80
2022/02/10 18:28:38;;;;;;;9.47;3.30;;;;;;;;;;5033187;28;20191;-79
2022/02/10 18:34:26;;;;;;;5.97;2.70;;;;;;;;;;5032721;28;20573;-79
2022/02/10 19:07:33;;;;;;;8.87;4.27;;;;;;;;;;5031774;28;20195;-81
2022/02/10 19:10:02;;;;;;;9.20;2.50;;;;;;;;;;5031001;28;20195;-82
2022/02/10 19:12:41;;;;;;;10.80;1.80;;;;;;;;;;5032669;28;20212;-81
2022/02/10 19:15:13;;;;;;;4.10;2.50;;;;;;;;;;5030020;28;20677;-82
2022/02/10 19:17:41;;;;;;;8.97;3.20;;;;;;;;;;5030793;28;20246;-80
2022/02/10 19:20:09;;;;;;;7.47;3.60;;;;;;;;;;5030525;28;20211;-81
2022/02/10 19:22:40;;;;;;;5.67;3.20;;;;;;;;;;5023331;28;20204;-82
2022/02/10 19:25:09;;;;;;;5.53;1.90;;;;;;;;;;5029126;28;20199;-81
2022/02/10 19:27:37;;;;;;;6.03;2.03;;;;;;;;;;5021647;28;20204;-82
2022/02/10 19:30:07;;;;;;;16.17;8.43;;;;;;;;;;5020220;28;20315;-82
2022/02/10 19:32:34;;;;;;;12.73;6.20;;;;;;;;;;5022161;28;20251;-82
2022/02/10 19:35:03;;;;;;;7.23;3.93;;;;;;;;;;5025533;28;20272;-79
2022/02/10 19:37:31;;;;;;;10.17;5.37;;;;;;;;;;5025395;28;20211;-80
2022/02/10 19:40:00;;;;;;;20.97;9.83;;;;;;;;;;5025189;28;20239;-81
2022/02/10 19:42:30;;;;;;;16.83;7.20;;;;;;;;;;5019706;28;20298;-81
2022/02/10 19:45:00;;;;;;;13.00;6.43;;;;;;;;;;5023239;28;20223;-80
2022/02/10 19:47:27;;;;;;;24.00;8.77;;;;;;;;;;5022745;28;20223;-81
2022/02/10 19:49:54;;;;;;;14.73;6.70;;;;;;;;;;5027496;28;20267;-79
2022/02/10 19:52:23;;;;;;;7.57;3.87;;;;;;;;;;5023288;28;20309;-79
2022/02/10 19:54:53;;;;;;;6.83;3.83;;;;;;;;;;5028339;28;20200;-79
2022/02/10 19:57:22;;;;;;;11.83;3.90;;;;;;;;;;5025050;28;20629;-80
2022/02/10 19:59:50;;;;;;;4.67;2.60;;;;;;;;;;5028722;28;20295;-79
2022/02/10 20:02:21;;;;;;;7.17;3.33;;;;;;;;;;5029729;28;20237;-81
2022/02/10 20:04:48;;;;;;;4.07;2.23;;;;;;;;;;5023207;28;20213;-77
2022/02/10 20:07:16;;;;;;;5.13;2.23;;;;;;;;;;5027235;28;20211;-82
2022/02/10 20:09:45;;;;;;;6.93;3.20;;;;;;;;;;5029085;28;20204;-81
2022/02/10 20:12:12;;;;;;;7.43;3.60;;;;;;;;;;5024768;28;20223;-81
2022/02/10 20:14:40;;;;;;;8.37;3.53;;;;;;;;;;5026927;28;20234;-81
2022/02/10 20:17:07;;;;;;;9.30;3.57;;;;;;;;;;5022588;28;20204;-79
2022/02/10 20:19:34;;;;;;;6.03;2.60;;;;;;;;;;5026317;28;20222;-81
2022/02/10 20:22:01;;;;;;;7.83;3.50;;;;;;;;;;5023044;28;20309;-81
2022/02/10 20:24:29;;;;;;;6.70;3.43;;;;;;;;;;5024602;28;20208;-81
2022/02/10 20:27:00;;;;;;;8.43;3.30;;;;;;;;;;5025041;28;20269;-81
2022/02/10 20:29:27;;;;;;;6.83;3.13;;;;;;;;;;5022794;28;20212;-81
2022/02/10 20:31:54;;;;;;;7.93;4.30;;;;;;;;;;5023150;28;20272;-81
2022/02/10 20:34:22;;;;;;;8.10;4.20;;;;;;;;;;5021401;28;20216;-80
2022/02/10 20:36:50;;;;;;;9.70;4.27;;;;;;;;;;5026287;28;20216;-80
2022/02/10 20:39:23;;;;;;;8.87;4.10;;;;;;;;;;5023707;28;20220;-81
2022/02/10 20:41:53;;;;;;;10.50;4.20;;;;;;;;;;5016501;28;20224;-79
2022/02/10 20:44:22;;;;;;;8.93;4.50;;;;;;;;;;5017265;28;20203;-81
2022/02/10 20:46:51;;;;;;;6.33;3.97;;;;;;;;;;5021383;28;20216;-80
2022/02/10 20:49:18;;;;;;;10.67;4.20;;;;;;;;;;5022068;28;20243;-81
2022/02/10 20:51:47;;;;;;;13.17;4.97;;;;;;;;;;5025933;28;20248;-81
2022/02/10 20:54:15;;;;;;;8.97;4.00;;;;;;;;;;5019752;28;20215;-81
2022/02/10 20:56:42;;;;;;;8.23;4.00;;;;;;;;;;5013859;28;20683;-81
2022/02/10 20:59:20;;;;;;;10.50;5.03;;;;;;;;;;5023020;28;20235;-81
2022/02/10 21:01:53;;;;;;;39.40;13.70;;;;;;;;;;5021180;28;20231;-80
2022/02/10 21:04:20;;;;;;;17.07;7.47;;;;;;;;;;5021821;28;20291;-80
2022/02/10 21:06:56;;;;;;;12.33;5.60;;;;;;;;;;5021833;28;20216;-81
2022/02/10 21:09:34;;;;;;;7.87;4.10;;;;;;;;;;5024199;28;20267;-80
2022/02/10 21:12:02;;;;;;;10.80;3.40;;;;;;;;;;5025344;28;20231;-81
2022/02/10 21:14:30;;;;;;;6.37;3.70;;;;;;;;;;5020011;28;20295;-81
2022/02/10 21:17:05;;;;;;;10.67;5.63;;;;;;;;;;5021215;28;20207;-80
2022/02/10 21:19:33;;;;;;;10.80;6.17;;;;;;;;;;5024017;28;20212;-80
2022/02/10 21:22:05;;;;;;;8.83;5.70;;;;;;;;;;5022817;28;20333;-80
2022/02/10 21:24:33;;;;;;;10.93;5.27;;;;;;;;;;5021579;28;20599;-80
2022/02/10 21:27:25;;;;;;;11.80;5.33;;;;;;;;;;5017223;28;20267;-78
2022/02/10 21:29:56;;;;;;;11.60;5.97;;;;;;;;;;5017179;28;20694;-79
2022/02/10 21:32:27;;;;;;;15.77;6.00;;;;;;;;;;5019898;28;20278;-79
2022/02/10 21:35:24;;;;;;;14.73;7.13;;;;;;;;;;5017280;28;20199;-80
2022/02/10 21:37:56;;;;;;;12.47;5.93;;;;;;;;;;5016783;28;20211;-79
2022/02/10 21:40:36;;;;;;;6.87;4.03;;;;;;;;;;5021205;28;20282;-79
2022/02/10 21:54:39;;;;;;;5.00;2.83;;;;;;;;;;4977243;28;20228;-79
2022/02/10 21:57:27;;;;;;;6.83;2.73;;;;;;;;;;5006415;28;20211;-79
2022/02/10 22:00:02;;;;;;;6.53;3.03;;;;;;;;;;5019956;28;20203;-78
2022/02/10 22:11:25;;;;;;;5.47;2.70;;;;;;;;;;5015042;28;20219;-79
2022/02/10 22:16:51;;;;;;;7.93;3.67;;;;;;;;;;5020046;28;20207;-80
2022/02/10 22:19:21;;;;;;;7.83;3.33;;;;;;;;;;5023034;28;20329;-80
2022/02/10 22:21:52;;;;;;;5.97;2.97;;;;;;;;;;5022712;28;20227;-80
2022/02/10 22:24:20;;;;;;;10.53;3.80;;;;;;;;;;5021198;28;20638;-80
2022/02/10 22:26:50;;;;;;;7.70;3.53;;;;;;;;;;5020329;28;20291;-80
2022/02/10 22:29:22;;;;;;;8.53;3.33;;;;;;;;;;5021960;28;20272;-80
2022/02/10 22:32:00;;;;;;;6.47;3.20;;;;;;;;;;5023479;28;20216;-80
2022/02/10 22:34:35;;;;;;;5.67;2.80;;;;;;;;;;5022623;28;20214;-79
2022/02/10 22:37:07;;;;;;;7.37;3.30;;;;;;;;;;5020644;28;20199;-79
2022/02/10 22:39:38;;;;;;;6.17;3.00;;;;;;;;;;5018581;28;20211;-80
2022/02/10 22:42:06;;;;;;;6.87;3.20;;;;;;;;;;5023406;28;20219;-80
2022/02/10 22:44:33;;;;;;;6.70;2.90;;;;;;;;;;5021660;28;20379;-78
2022/02/10 22:47:02;;;;;;;5.27;2.90;;;;;;;;;;5022313;28;20235;-79
2022/02/10 22:49:29;;;;;;;7.57;3.13;;;;;;;;;;5022961;28;20215;-80
2022/02/10 22:51:56;;;;;;;3.47;2.37;;;;;;;;;;5023430;28;20485;-78
2022/02/10 22:54:26;;;;;;;5.37;2.50;;;;;;;;;;5026316;28;20580;-80
2022/02/10 22:56:53;;;;;;;6.57;2.83;;;;;;;;;;5023378;28;20208;-80
2022/02/10 22:59:21;;;;;;;3.40;2.23;;;;;;;;;;5030634;28;20262;-80
2022/02/10 23:01:49;;;;;;;2.87;1.73;;;;;;;;;;5026098;28;20228;-80
2022/02/10 23:04:16;;;;;;;2.77;1.67;;;;;;;;;;5022445;28;20222;-80
2022/02/10 23:06:44;;;;;;;2.23;1.70;;;;;;;;;;5029373;28;20246;-80
2022/02/10 23:09:28;;;;;;;2.70;1.77;;;;;;;;;;5031892;28;20246;-80
2022/02/10 23:11:58;;;;;;;2.80;1.87;;;;;;;;;;5022703;28;20306;-79
2022/02/10 23:14:25;;;;;;;4.77;1.90;;;;;;;;;;5030656;28;20283;-80
2022/02/10 23:16:52;;;;;;;3.50;1.90;;;;;;;;;;5026124;28;20195;-80
2022/02/10 23:19:21;;;;;;;3.80;2.00;;;;;;;;;;5026421;28;20211;-80
2022/02/10 23:21:48;;;;;;;3.33;1.83;;;;;;;;;;5027256;28;20219;-81
2022/02/10 23:24:15;;;;;;;3.87;1.73;;;;;;;;;;5026952;28;20246;-79
2022/02/10 23:26:42;;;;;;;2.70;1.80;;;;;;;;;;5026282;28;20206;-79
2022/02/10 23:29:11;;;;;;;2.43;1.53;;;;;;;;;;5022915;28;20204;-80
2022/02/10 23:31:38;;;;;;;3.03;1.77;;;;;;;;;;5026591;28;20228;-80
2022/02/10 23:34:05;;;;;;;2.30;1.60;;;;;;;;;;5021621;28;20274;-79
2022/02/10 23:36:49;;;;;;;3.47;1.90;;;;;;;;;;5025397;28;20666;-80
2022/02/10 23:39:20;;;;;;;3.53;2.00;;;;;;;;;;5022702;28;20200;-79
2022/02/10 23:44:37;;;;;;;2.60;1.80;;;;;;;;;;5021611;28;20352;-79
2022/02/10 23:47:06;;;;;;;4.57;1.90;;;;;;;;;;5023940;28;20212;-78
2022/02/10 23:49:34;;;;;;;4.60;1.90;;;;;;;;;;5024777;28;20227;-79
2022/02/10 23:52:03;;;;;;;2.37;1.40;;;;;;;;;;5019500;28;20224;-79
2022/02/10 23:54:31;;;;;;;2.33;1.30;;;;;;;;;;5025360;28;20219;-79
2022/02/10 23:57:03;;;;;;;2.67;1.50;;;;;;;;;;5025760;28;20232;-79
2022/02/10 23:59:46;;;;;;;3.07;1.50;;;;;;;;;;5024337;28;20208;-78
